sensor_id;sensor_type;location;lat;lon;timestamp;P1;durP1;ratioP1;P2;durP2;ratioP2
19754;SDS011;10036;47.812;9.274;2022-09-01T00:01:38;16.67;;;12.40;;
19754;SDS011;10036;47.812;9.274;2022-09-01T00:04:13;17.67;;;11.88;;
19754;SDS011;10036;47.812;9.274;2022-09-01T00:06:41;15.02;;;11.95;;
19754;SDS011;10036;47.812;9.274;2022-09-01T00:09:13;15.73;;;12.30;;
19754;SDS011;10036;47.812;9.274;2022-09-01T00:11:44;14.27;;;11.43;;
19754;SDS011;10036;47.812;9.274;2022-09-01T00:14:13;16.30;;;11.93;;
19754;SDS011;10036;47.812;9.274;2022-09-01T00:16:41;14.65;;;11.63;;
19754;SDS011;10036;47.812;9.274;2022-09-01T00:19:07;14.48;;;11.13;;
19754;SDS011;10036;47.812;9.274;2022-09-01T00:21:39;13.93;;;11.48;;
19754;SDS011;10036;47.812;9.274;2022-09-01T00:24:08;13.30;;;11.63;;
19754;SDS011;10036;47.812;9.274;2022-09-01T00:26:36;13.45;;;10.60;;
19754;SDS011;10036;47.812;9.274;2022-09-01T00:29:04;16.45;;;12.10;;
19754;SDS011;10036;47.812;9.274;2022-09-01T00:31:32;16.63;;;12.90;;
19754;SDS011;10036;47.812;9.274;2022-09-01T00:34:00;16.83;;;11.82;;
19754;SDS011;10036;47.812;9.274;2022-09-01T00:36:27;14.57;;;12.02;;
19754;SDS011;10036;47.812;9.274;2022-09-01T00:38:54;15.50;;;12.68;;
19754;SDS011;10036;47.812;9.274;2022-09-01T00:41:24;16.50;;;13.32;;
19754;SDS011;10036;47.812;9.274;2022-09-01T00:43:54;17.75;;;14.00;;
19754;SDS011;10036;47.812;9.274;2022-09-01T00:46:23;18.52;;;14.52;;
19754;SDS011;10036;47.812;9.274;2022-09-01T00:48:54;22.92;;;17.50;;
19754;SDS011;10036;47.812;9.274;2022-09-01T00:51:23;21.33;;;16.95;;
19754;SDS011;10036;47.812;9.274;2022-09-01T00:53:52;18.90;;;16.10;;
19754;SDS011;10036;47.812;9.274;2022-09-01T00:56:19;21.45;;;16.38;;
19754;SDS011;10036;47.812;9.274;2022-09-01T00:58:47;23.90;;;17.88;;
19754;SDS011;10036;47.812;9.274;2022-09-01T01:01:15;19.13;;;16.63;;
19754;SDS011;10036;47.812;9.274;2022-09-01T01:03:43;20.45;;;17.52;;
19754;SDS011;10036;47.812;9.274;2022-09-01T01:06:14;20.90;;;16.70;;
19754;SDS011;10036;47.812;9.274;2022-09-01T01:08:43;19.65;;;16.20;;
19754;SDS011;10036;47.812;9.274;2022-09-01T01:11:21;21.85;;;16.08;;
19754;SDS011;10036;47.812;9.274;2022-09-01T01:13:50;20.40;;;17.15;;
19754;SDS011;10036;47.812;9.274;2022-09-01T01:16:20;21.45;;;16.85;;
19754;SDS011;10036;47.812;9.274;2022-09-01T01:18:49;21.85;;;17.17;;
19754;SDS011;10036;47.812;9.274;2022-09-01T01:21:18;21.30;;;16.63;;
19754;SDS011;10036;47.812;9.274;2022-09-01T01:26:48;20.08;;;16.08;;
19754;SDS011;10036;47.812;9.274;2022-09-01T01:29:15;17.35;;;14.57;;
19754;SDS011;10036;47.812;9.274;2022-09-01T01:31:43;20.58;;;16.08;;
19754;SDS011;10036;47.812;9.274;2022-09-01T01:34:11;18.60;;;15.77;;
19754;SDS011;10036;47.812;9.274;2022-09-01T01:36:39;17.13;;;14.68;;
19754;SDS011;10036;47.812;9.274;2022-09-01T01:39:07;19.73;;;15.57;;
19754;SDS011;10036;47.812;9.274;2022-09-01T01:41:38;17.77;;;15.10;;
19754;SDS011;10036;47.812;9.274;2022-09-01T01:44:07;18.10;;;14.82;;
19754;SDS011;10036;47.812;9.274;2022-09-01T01:46:39;20.27;;;15.40;;
19754;SDS011;10036;47.812;9.274;2022-09-01T01:49:08;18.42;;;15.52;;
19754;SDS011;10036;47.812;9.274;2022-09-01T01:51:37;21.13;;;17.63;;
19754;SDS011;10036;47.812;9.274;2022-09-01T01:54:05;19.70;;;16.15;;
19754;SDS011;10036;47.812;9.274;2022-09-01T01:56:33;22.13;;;16.45;;
19754;SDS011;10036;47.812;9.274;2022-09-01T01:59:05;20.77;;;16.02;;
19754;SDS011;10036;47.812;9.274;2022-09-01T02:01:35;20.55;;;17.00;;
19754;SDS011;10036;47.812;9.274;2022-09-01T02:04:03;18.33;;;15.60;;
19754;SDS011;10036;47.812;9.274;2022-09-01T02:06:31;18.58;;;16.10;;
19754;SDS011;10036;47.812;9.274;2022-09-01T02:08:59;19.00;;;15.20;;
19754;SDS011;10036;47.812;9.274;2022-09-01T02:11:27;16.77;;;13.98;;
19754;SDS011;10036;47.812;9.274;2022-09-01T02:13:57;16.73;;;13.77;;
19754;SDS011;10036;47.812;9.274;2022-09-01T02:16:27;18.27;;;14.82;;
19754;SDS011;10036;47.812;9.274;2022-09-01T02:18:56;18.70;;;15.27;;
19754;SDS011;10036;47.812;9.274;2022-09-01T02:21:24;21.60;;;16.33;;
19754;SDS011;10036;47.812;9.274;2022-09-01T02:23:53;19.30;;;15.43;;
19754;SDS011;10036;47.812;9.274;2022-09-01T02:26:24;18.25;;;14.07;;
19754;SDS011;10036;47.812;9.274;2022-09-01T02:28:55;17.20;;;14.40;;
19754;SDS011;10036;47.812;9.274;2022-09-01T02:31:23;15.32;;;12.45;;
19754;SDS011;10036;47.812;9.274;2022-09-01T02:33:53;16.58;;;14.50;;
19754;SDS011;10036;47.812;9.274;2022-09-01T02:36:20;15.07;;;12.95;;
19754;SDS011;10036;47.812;9.274;2022-09-01T02:38:49;14.57;;;12.77;;
19754;SDS011;10036;47.812;9.274;2022-09-01T02:41:16;19.05;;;13.55;;
19754;SDS011;10036;47.812;9.274;2022-09-01T02:43:50;16.75;;;13.45;;
19754;SDS011;10036;47.812;9.274;2022-09-01T02:46:18;15.85;;;13.85;;
19754;SDS011;10036;47.812;9.274;2022-09-01T02:48:47;20.17;;;14.07;;
19754;SDS011;10036;47.812;9.274;2022-09-01T02:51:17;15.00;;;13.30;;
19754;SDS011;10036;47.812;9.274;2022-09-01T02:53:46;18.27;;;14.77;;
19754;SDS011;10036;47.812;9.274;2022-09-01T02:56:17;18.33;;;14.30;;
19754;SDS011;10036;47.812;9.274;2022-09-01T02:58:47;17.52;;;13.93;;
19754;SDS011;10036;47.812;9.274;2022-09-01T03:01:16;16.45;;;14.60;;
19754;SDS011;10036;47.812;9.274;2022-09-01T03:03:46;19.50;;;15.05;;
19754;SDS011;10036;47.812;9.274;2022-09-01T03:06:14;16.35;;;13.95;;
19754;SDS011;10036;47.812;9.274;2022-09-01T03:08:45;16.75;;;13.68;;
19754;SDS011;10036;47.812;9.274;2022-09-01T03:11:14;16.05;;;13.63;;
19754;SDS011;10036;47.812;9.274;2022-09-01T03:13:41;16.55;;;12.40;;
19754;SDS011;10036;47.812;9.274;2022-09-01T03:16:09;16.73;;;13.65;;
19754;SDS011;10036;47.812;9.274;2022-09-01T03:18:37;18.27;;;13.35;;
19754;SDS011;10036;47.812;9.274;2022-09-01T03:21:05;18.98;;;14.27;;
19754;SDS011;10036;47.812;9.274;2022-09-01T03:23:34;16.25;;;13.07;;
19754;SDS011;10036;47.812;9.274;2022-09-01T03:26:03;19.05;;;12.38;;
19754;SDS011;10036;47.812;9.274;2022-09-01T03:28:30;15.88;;;12.25;;
19754;SDS011;10036;47.812;9.274;2022-09-01T03:30:57;13.93;;;11.63;;
19754;SDS011;10036;47.812;9.274;2022-09-01T03:33:25;14.50;;;11.80;;
19754;SDS011;10036;47.812;9.274;2022-09-01T03:35:53;13.93;;;12.27;;
19754;SDS011;10036;47.812;9.274;2022-09-01T03:38:21;13.30;;;11.52;;
19754;SDS011;10036;47.812;9.274;2022-09-01T03:40:49;16.10;;;11.77;;
19754;SDS011;10036;47.812;9.274;2022-09-01T03:43:19;14.02;;;11.85;;
19754;SDS011;10036;47.812;9.274;2022-09-01T03:45:51;15.20;;;11.98;;
19754;SDS011;10036;47.812;9.274;2022-09-01T03:48:20;13.85;;;10.98;;
19754;SDS011;10036;47.812;9.274;2022-09-01T03:50:51;16.00;;;13.70;;
19754;SDS011;10036;47.812;9.274;2022-09-01T03:53:20;14.05;;;12.02;;
19754;SDS011;10036;47.812;9.274;2022-09-01T03:55:51;16.58;;;14.02;;
19754;SDS011;10036;47.812;9.274;2022-09-01T03:58:23;15.55;;;12.45;;
19754;SDS011;10036;47.812;9.274;2022-09-01T04:00:52;14.48;;;11.45;;
19754;SDS011;10036;47.812;9.274;2022-09-01T04:03:20;14.68;;;10.93;;
19754;SDS011;10036;47.812;9.274;2022-09-01T04:05:50;13.60;;;11.63;;
19754;SDS011;10036;47.812;9.274;2022-09-01T04:08:19;17.65;;;12.98;;
19754;SDS011;10036;47.812;9.274;2022-09-01T04:10:50;15.40;;;12.55;;
19754;SDS011;10036;47.812;9.274;2022-09-01T04:13:19;24.38;;;15.93;;
19754;SDS011;10036;47.812;9.274;2022-09-01T04:15:50;17.42;;;13.30;;
19754;SDS011;10036;47.812;9.274;2022-09-01T04:18:17;14.23;;;11.60;;
19754;SDS011;10036;47.812;9.274;2022-09-01T04:20:48;15.63;;;12.57;;
19754;SDS011;10036;47.812;9.274;2022-09-01T04:23:16;14.48;;;11.73;;
19754;SDS011;10036;47.812;9.274;2022-09-01T04:25:50;17.67;;;13.18;;
19754;SDS011;10036;47.812;9.274;2022-09-01T04:28:20;15.68;;;13.23;;
19754;SDS011;10036;47.812;9.274;2022-09-01T04:30:52;14.88;;;11.63;;
19754;SDS011;10036;47.812;9.274;2022-09-01T04:33:22;16.23;;;12.38;;
19754;SDS011;10036;47.812;9.274;2022-09-01T04:35:50;14.95;;;11.85;;
19754;SDS011;10036;47.812;9.274;2022-09-01T04:38:20;21.23;;;12.35;;
19754;SDS011;10036;47.812;9.274;2022-09-01T04:40:51;20.88;;;14.50;;
19754;SDS011;10036;47.812;9.274;2022-09-01T04:43:21;19.48;;;13.85;;
19754;SDS011;10036;47.812;9.274;2022-09-01T04:45:48;14.27;;;11.85;;
19754;SDS011;10036;47.812;9.274;2022-09-01T04:48:17;19.48;;;12.25;;
19754;SDS011;10036;47.812;9.274;2022-09-01T04:50:46;14.88;;;11.43;;
19754;SDS011;10036;47.812;9.274;2022-09-01T04:53:16;15.15;;;11.35;;
19754;SDS011;10036;47.812;9.274;2022-09-01T04:55:46;16.42;;;11.07;;
19754;SDS011;10036;47.812;9.274;2022-09-01T04:58:15;11.95;;;10.35;;
19754;SDS011;10036;47.812;9.274;2022-09-01T05:00:42;17.05;;;11.52;;
19754;SDS011;10036;47.812;9.274;2022-09-01T05:03:12;14.05;;;10.82;;
19754;SDS011;10036;47.812;9.274;2022-09-01T05:05:41;16.92;;;11.23;;
19754;SDS011;10036;47.812;9.274;2022-09-01T05:08:10;13.77;;;10.77;;
19754;SDS011;10036;47.812;9.274;2022-09-01T05:10:40;14.48;;;11.82;;
19754;SDS011;10036;47.812;9.274;2022-09-01T05:13:09;14.45;;;11.18;;
19754;SDS011;10036;47.812;9.274;2022-09-01T05:15:37;13.50;;;11.18;;
19754;SDS011;10036;47.812;9.274;2022-09-01T05:18:07;16.23;;;11.50;;
19754;SDS011;10036;47.812;9.274;2022-09-01T05:20:38;14.43;;;12.02;;
19754;SDS011;10036;47.812;9.274;2022-09-01T05:23:10;15.02;;;11.30;;
19754;SDS011;10036;47.812;9.274;2022-09-01T05:25:39;19.77;;;12.45;;
19754;SDS011;10036;47.812;9.274;2022-09-01T05:28:08;15.20;;;11.63;;
19754;SDS011;10036;47.812;9.274;2022-09-01T05:30:37;16.02;;;12.32;;
19754;SDS011;10036;47.812;9.274;2022-09-01T05:33:05;15.75;;;12.30;;
19754;SDS011;10036;47.812;9.274;2022-09-01T05:35:36;18.08;;;13.18;;
19754;SDS011;10036;47.812;9.274;2022-09-01T05:38:09;17.92;;;12.88;;
19754;SDS011;10036;47.812;9.274;2022-09-01T05:40:38;14.95;;;12.40;;
19754;SDS011;10036;47.812;9.274;2022-09-01T05:43:06;21.90;;;14.02;;
19754;SDS011;10036;47.812;9.274;2022-09-01T05:45:37;18.30;;;13.10;;
19754;SDS011;10036;47.812;9.274;2022-09-01T05:48:08;16.30;;;13.75;;
19754;SDS011;10036;47.812;9.274;2022-09-01T05:50:38;19.23;;;13.65;;
19754;SDS011;10036;47.812;9.274;2022-09-01T05:53:08;16.83;;;13.10;;
19754;SDS011;10036;47.812;9.274;2022-09-01T05:55:40;17.05;;;13.32;;
19754;SDS011;10036;47.812;9.274;2022-09-01T05:58:09;17.25;;;13.18;;
19754;SDS011;10036;47.812;9.274;2022-09-01T06:00:38;16.63;;;12.95;;
19754;SDS011;10036;47.812;9.274;2022-09-01T06:03:06;15.90;;;12.48;;
19754;SDS011;10036;47.812;9.274;2022-09-01T06:05:35;15.63;;;11.80;;
19754;SDS011;10036;47.812;9.274;2022-09-01T06:08:04;14.90;;;12.93;;
19754;SDS011;10036;47.812;9.274;2022-09-01T06:10:36;16.65;;;12.15;;
19754;SDS011;10036;47.812;9.274;2022-09-01T06:13:04;16.05;;;12.00;;
19754;SDS011;10036;47.812;9.274;2022-09-01T06:15:31;16.20;;;12.68;;
19754;SDS011;10036;47.812;9.274;2022-09-01T06:17:58;15.70;;;12.02;;
19754;SDS011;10036;47.812;9.274;2022-09-01T06:20:25;14.43;;;11.27;;
19754;SDS011;10036;47.812;9.274;2022-09-01T06:22:54;13.90;;;11.50;;
19754;SDS011;10036;47.812;9.274;2022-09-01T06:25:21;14.55;;;10.95;;
19754;SDS011;10036;47.812;9.274;2022-09-01T06:27:49;14.68;;;11.55;;
19754;SDS011;10036;47.812;9.274;2022-09-01T06:30:16;13.35;;;10.73;;
19754;SDS011;10036;47.812;9.274;2022-09-01T06:32:49;13.07;;;10.48;;
19754;SDS011;10036;47.812;9.274;2022-09-01T06:35:16;12.40;;;9.82;;
19754;SDS011;10036;47.812;9.274;2022-09-01T06:37:44;10.45;;;8.98;;
19754;SDS011;10036;47.812;9.274;2022-09-01T06:40:13;12.05;;;8.75;;
19754;SDS011;10036;47.812;9.274;2022-09-01T06:42:42;10.93;;;8.50;;
19754;SDS011;10036;47.812;9.274;2022-09-01T06:45:13;12.13;;;8.48;;
19754;SDS011;10036;47.812;9.274;2022-09-01T06:47:40;9.88;;;8.52;;
19754;SDS011;10036;47.812;9.274;2022-09-01T06:50:09;13.60;;;9.02;;
19754;SDS011;10036;47.812;9.274;2022-09-01T06:52:39;9.15;;;7.45;;
19754;SDS011;10036;47.812;9.274;2022-09-01T06:55:06;8.73;;;7.43;;
19754;SDS011;10036;47.812;9.274;2022-09-01T06:57:34;11.65;;;8.10;;
19754;SDS011;10036;47.812;9.274;2022-09-01T07:00:02;10.13;;;7.72;;
19754;SDS011;10036;47.812;9.274;2022-09-01T07:02:43;11.48;;;8.70;;
19754;SDS011;10036;47.812;9.274;2022-09-01T07:05:10;12.07;;;7.75;;
19754;SDS011;10036;47.812;9.274;2022-09-01T07:07:38;8.27;;;6.88;;
19754;SDS011;10036;47.812;9.274;2022-09-01T07:10:05;9.90;;;7.70;;
19754;SDS011;10036;47.812;9.274;2022-09-01T07:12:32;9.02;;;6.90;;
19754;SDS011;10036;47.812;9.274;2022-09-01T07:14:59;8.20;;;6.82;;
19754;SDS011;10036;47.812;9.274;2022-09-01T07:17:26;7.70;;;6.68;;
19754;SDS011;10036;47.812;9.274;2022-09-01T07:19:56;8.40;;;6.78;;
19754;SDS011;10036;47.812;9.274;2022-09-01T07:22:22;7.53;;;6.30;;
19754;SDS011;10036;47.812;9.274;2022-09-01T07:24:49;6.85;;;6.18;;
19754;SDS011;10036;47.812;9.274;2022-09-01T07:27:22;7.00;;;5.95;;
19754;SDS011;10036;47.812;9.274;2022-09-01T07:29:52;6.05;;;5.45;;
19754;SDS011;10036;47.812;9.274;2022-09-01T07:32:20;8.77;;;5.53;;
19754;SDS011;10036;47.812;9.274;2022-09-01T07:34:47;6.00;;;5.40;;
19754;SDS011;10036;47.812;9.274;2022-09-01T07:37:15;6.95;;;5.38;;
19754;SDS011;10036;47.812;9.274;2022-09-01T07:39:47;5.97;;;5.25;;
19754;SDS011;10036;47.812;9.274;2022-09-01T07:42:15;7.07;;;5.40;;
19754;SDS011;10036;47.812;9.274;2022-09-01T07:44:42;5.35;;;4.80;;
19754;SDS011;10036;47.812;9.274;2022-09-01T07:47:10;5.10;;;4.63;;
19754;SDS011;10036;47.812;9.274;2022-09-01T07:49:39;4.75;;;4.35;;
19754;SDS011;10036;47.812;9.274;2022-09-01T07:52:06;5.53;;;4.88;;
19754;SDS011;10036;47.812;9.274;2022-09-01T07:54:35;4.97;;;4.47;;
19754;SDS011;10036;47.812;9.274;2022-09-01T07:57:02;6.68;;;4.45;;
19754;SDS011;10036;47.812;9.274;2022-09-01T07:59:29;5.97;;;5.13;;
19754;SDS011;10036;47.812;9.274;2022-09-01T08:01:57;5.47;;;4.95;;
19754;SDS011;10036;47.812;9.274;2022-09-01T08:04:25;4.70;;;4.25;;
19754;SDS011;10036;47.812;9.274;2022-09-01T08:06:52;5.40;;;4.38;;
19754;SDS011;10036;47.812;9.274;2022-09-01T08:09:19;5.68;;;4.55;;
19754;SDS011;10036;47.812;9.274;2022-09-01T08:11:48;6.38;;;5.10;;
19754;SDS011;10036;47.812;9.274;2022-09-01T08:14:15;5.18;;;4.53;;
19754;SDS011;10036;47.812;9.274;2022-09-01T08:16:42;5.97;;;4.80;;
19754;SDS011;10036;47.812;9.274;2022-09-01T08:19:08;5.88;;;4.63;;
19754;SDS011;10036;47.812;9.274;2022-09-01T08:21:35;5.40;;;4.90;;
19754;SDS011;10036;47.812;9.274;2022-09-01T08:24:04;5.07;;;4.50;;
19754;SDS011;10036;47.812;9.274;2022-09-01T08:26:30;5.95;;;4.88;;
19754;SDS011;10036;47.812;9.274;2022-09-01T08:28:59;5.30;;;4.80;;
19754;SDS011;10036;47.812;9.274;2022-09-01T08:31:26;4.75;;;4.32;;
19754;SDS011;10036;47.812;9.274;2022-09-01T08:33:53;4.93;;;4.47;;
19754;SDS011;10036;47.812;9.274;2022-09-01T08:36:20;4.90;;;4.30;;
19754;SDS011;10036;47.812;9.274;2022-09-01T08:38:47;6.38;;;4.10;;
19754;SDS011;10036;47.812;9.274;2022-09-01T08:41:15;3.80;;;3.50;;
19754;SDS011;10036;47.812;9.274;2022-09-01T08:43:51;5.07;;;3.78;;
19754;SDS011;10036;47.812;9.274;2022-09-01T08:46:28;4.72;;;4.30;;
19754;SDS011;10036;47.812;9.274;2022-09-01T08:49:00;4.28;;;3.83;;
19754;SDS011;10036;47.812;9.274;2022-09-01T08:51:34;4.20;;;3.80;;
19754;SDS011;10036;47.812;9.274;2022-09-01T08:54:06;5.32;;;3.75;;
19754;SDS011;10036;47.812;9.274;2022-09-01T08:56:45;4.47;;;3.92;;
19754;SDS011;10036;47.812;9.274;2022-09-01T08:59:14;4.18;;;3.78;;
19754;SDS011;10036;47.812;9.274;2022-09-01T09:01:42;4.30;;;3.90;;
19754;SDS011;10036;47.812;9.274;2022-09-01T09:04:19;4.55;;;3.85;;
19754;SDS011;10036;47.812;9.274;2022-09-01T09:06:56;3.72;;;3.40;;
19754;SDS011;10036;47.812;9.274;2022-09-01T09:09:34;4.18;;;3.83;;
19754;SDS011;10036;47.812;9.274;2022-09-01T09:15:03;4.32;;;3.92;;
19754;SDS011;10036;47.812;9.274;2022-09-01T09:17:36;7.32;;;3.70;;
19754;SDS011;10036;47.812;9.274;2022-09-01T09:20:10;4.80;;;4.15;;
19754;SDS011;10036;47.812;9.274;2022-09-01T09:22:37;4.35;;;3.95;;
19754;SDS011;10036;47.812;9.274;2022-09-01T09:25:07;4.10;;;3.70;;
19754;SDS011;10036;47.812;9.274;2022-09-01T09:27:37;7.00;;;4.00;;
19754;SDS011;10036;47.812;9.274;2022-09-01T09:30:07;3.67;;;3.30;;
19754;SDS011;10036;47.812;9.274;2022-09-01T09:32:47;3.92;;;3.53;;
19754;SDS011;10036;47.812;9.274;2022-09-01T09:35:19;4.10;;;3.70;;
19754;SDS011;10036;47.812;9.274;2022-09-01T09:37:50;6.40;;;3.22;;
19754;SDS011;10036;47.812;9.274;2022-09-01T09:40:19;3.85;;;3.55;;
19754;SDS011;10036;47.812;9.274;2022-09-01T09:43:04;4.45;;;3.83;;
19754;SDS011;10036;47.812;9.274;2022-09-01T09:45:34;6.70;;;3.95;;
19754;SDS011;10036;47.812;9.274;2022-09-01T09:48:04;6.57;;;4.32;;
19754;SDS011;10036;47.812;9.274;2022-09-01T09:50:34;4.30;;;3.95;;
19754;SDS011;10036;47.812;9.274;2022-09-01T09:53:10;4.03;;;3.53;;
19754;SDS011;10036;47.812;9.274;2022-09-01T09:55:56;4.07;;;3.70;;
19754;SDS011;10036;47.812;9.274;2022-09-01T09:58:26;6.13;;;3.95;;
19754;SDS011;10036;47.812;9.274;2022-09-01T10:01:02;4.05;;;3.65;;
19754;SDS011;10036;47.812;9.274;2022-09-01T10:03:39;3.97;;;3.63;;
19754;SDS011;10036;47.812;9.274;2022-09-01T10:06:11;3.65;;;3.35;;
19754;SDS011;10036;47.812;9.274;2022-09-01T10:08:42;4.50;;;3.70;;
19754;SDS011;10036;47.812;9.274;2022-09-01T10:11:11;4.43;;;4.03;;
19754;SDS011;10036;47.812;9.274;2022-09-01T10:13:51;4.03;;;3.60;;
19754;SDS011;10036;47.812;9.274;2022-09-01T10:16:22;5.07;;;4.18;;
19754;SDS011;10036;47.812;9.274;2022-09-01T10:18:53;6.25;;;3.65;;
19754;SDS011;10036;47.812;9.274;2022-09-01T10:21:25;4.05;;;3.05;;
19754;SDS011;10036;47.812;9.274;2022-09-01T10:23:59;3.20;;;2.95;;
19754;SDS011;10036;47.812;9.274;2022-09-01T10:26:34;3.40;;;3.13;;
19754;SDS011;10036;47.812;9.274;2022-09-01T10:29:05;3.80;;;3.50;;
19754;SDS011;10036;47.812;9.274;2022-09-01T10:31:36;5.63;;;3.67;;
19754;SDS011;10036;47.812;9.274;2022-09-01T10:34:04;4.78;;;3.40;;
19754;SDS011;10036;47.812;9.274;2022-09-01T10:36:33;4.47;;;3.50;;
19754;SDS011;10036;47.812;9.274;2022-09-01T10:39:01;3.67;;;3.38;;
19754;SDS011;10036;47.812;9.274;2022-09-01T10:41:45;3.60;;;3.30;;
19754;SDS011;10036;47.812;9.274;2022-09-01T10:44:19;3.58;;;3.28;;
19754;SDS011;10036;47.812;9.274;2022-09-01T10:46:50;3.38;;;3.15;;
19754;SDS011;10036;47.812;9.274;2022-09-01T10:49:19;3.97;;;2.97;;
19754;SDS011;10036;47.812;9.274;2022-09-01T10:52:01;3.33;;;3.03;;
19754;SDS011;10036;47.812;9.274;2022-09-01T10:54:48;3.13;;;2.92;;
19754;SDS011;10036;47.812;9.274;2022-09-01T10:57:25;3.38;;;3.10;;
19754;SDS011;10036;47.812;9.274;2022-09-01T11:00:14;3.53;;;3.00;;
19754;SDS011;10036;47.812;9.274;2022-09-01T11:03:49;3.05;;;2.85;;
19754;SDS011;10036;47.812;9.274;2022-09-01T11:09:28;3.90;;;3.42;;
19754;SDS011;10036;47.812;9.274;2022-09-01T11:15:02;4.65;;;3.60;;
19754;SDS011;10036;47.812;9.274;2022-09-01T11:17:31;3.13;;;2.90;;
19754;SDS011;10036;47.812;9.274;2022-09-01T11:20:04;3.22;;;3.00;;
19754;SDS011;10036;47.812;9.274;2022-09-01T11:22:35;4.40;;;3.40;;
19754;SDS011;10036;47.812;9.274;2022-09-01T11:25:08;4.35;;;3.05;;
19754;SDS011;10036;47.812;9.274;2022-09-01T11:30:30;3.20;;;2.70;;
19754;SDS011;10036;47.812;9.274;2022-09-01T11:33:02;2.97;;;2.55;;
19754;SDS011;10036;47.812;9.274;2022-09-01T11:35:44;3.20;;;2.90;;
19754;SDS011;10036;47.812;9.274;2022-09-01T11:38:12;3.15;;;2.63;;
19754;SDS011;10036;47.812;9.274;2022-09-01T11:40:41;4.72;;;2.72;;
19754;SDS011;10036;47.812;9.274;2022-09-01T11:43:09;3.15;;;2.67;;
19754;SDS011;10036;47.812;9.274;2022-09-01T11:45:41;2.75;;;2.53;;
19754;SDS011;10036;47.812;9.274;2022-09-01T11:48:16;3.40;;;2.90;;
19754;SDS011;10036;47.812;9.274;2022-09-01T11:50:44;3.15;;;2.80;;
19754;SDS011;10036;47.812;9.274;2022-09-01T11:53:23;5.40;;;2.95;;
19754;SDS011;10036;47.812;9.274;2022-09-01T11:55:53;2.90;;;2.70;;
19754;SDS011;10036;47.812;9.274;2022-09-01T11:58:29;3.08;;;2.75;;
19754;SDS011;10036;47.812;9.274;2022-09-01T12:01:10;3.17;;;2.90;;
19754;SDS011;10036;47.812;9.274;2022-09-01T12:03:39;2.35;;;2.20;;
19754;SDS011;10036;47.812;9.274;2022-09-01T12:06:09;3.03;;;2.55;;
19754;SDS011;10036;47.812;9.274;2022-09-01T12:08:39;3.03;;;2.80;;
19754;SDS011;10036;47.812;9.274;2022-09-01T12:11:09;4.22;;;2.80;;
19754;SDS011;10036;47.812;9.274;2022-09-01T12:13:38;3.25;;;2.70;;
19754;SDS011;10036;47.812;9.274;2022-09-01T12:16:07;3.63;;;3.20;;
19754;SDS011;10036;47.812;9.274;2022-09-01T12:18:37;3.30;;;2.97;;
19754;SDS011;10036;47.812;9.274;2022-09-01T12:21:18;2.78;;;2.58;;
19754;SDS011;10036;47.812;9.274;2022-09-01T12:23:47;3.15;;;2.83;;
19754;SDS011;10036;47.812;9.274;2022-09-01T12:26:14;3.45;;;2.60;;
19754;SDS011;10036;47.812;9.274;2022-09-01T12:28:44;3.83;;;2.80;;
19754;SDS011;10036;47.812;9.274;2022-09-01T12:31:15;5.35;;;3.20;;
19754;SDS011;10036;47.812;9.274;2022-09-01T12:33:45;3.53;;;2.92;;
19754;SDS011;10036;47.812;9.274;2022-09-01T12:36:13;3.28;;;3.03;;
19754;SDS011;10036;47.812;9.274;2022-09-01T12:38:46;3.42;;;3.13;;
19754;SDS011;10036;47.812;9.274;2022-09-01T12:41:24;3.55;;;3.10;;
19754;SDS011;10036;47.812;9.274;2022-09-01T12:46:52;5.40;;;3.28;;
19754;SDS011;10036;47.812;9.274;2022-09-01T12:49:20;3.15;;;2.90;;
19754;SDS011;10036;47.812;9.274;2022-09-01T12:51:49;3.60;;;2.63;;
19754;SDS011;10036;47.812;9.274;2022-09-01T12:54:51;3.72;;;2.90;;
19754;SDS011;10036;47.812;9.274;2022-09-01T12:57:24;5.95;;;3.03;;
19754;SDS011;10036;47.812;9.274;2022-09-01T13:00:06;3.25;;;2.97;;
19754;SDS011;10036;47.812;9.274;2022-09-01T13:02:40;3.60;;;3.30;;
19754;SDS011;10036;47.812;9.274;2022-09-01T13:05:23;3.40;;;3.10;;
19754;SDS011;10036;47.812;9.274;2022-09-01T13:07:53;2.90;;;2.70;;
19754;SDS011;10036;47.812;9.274;2022-09-01T13:10:23;4.75;;;2.80;;
19754;SDS011;10036;47.812;9.274;2022-09-01T13:12:52;2.80;;;2.60;;
19754;SDS011;10036;47.812;9.274;2022-09-01T13:15:20;2.83;;;2.53;;
19754;SDS011;10036;47.812;9.274;2022-09-01T13:17:47;3.10;;;2.78;;
19754;SDS011;10036;47.812;9.274;2022-09-01T13:20:14;2.83;;;2.63;;
19754;SDS011;10036;47.812;9.274;2022-09-01T13:22:41;3.08;;;2.83;;
19754;SDS011;10036;47.812;9.274;2022-09-01T13:25:09;3.42;;;3.10;;
19754;SDS011;10036;47.812;9.274;2022-09-01T13:27:38;3.20;;;3.00;;
19754;SDS011;10036;47.812;9.274;2022-09-01T13:30:08;3.38;;;3.08;;
19754;SDS011;10036;47.812;9.274;2022-09-01T13:32:38;3.75;;;3.17;;
19754;SDS011;10036;47.812;9.274;2022-09-01T13:35:08;3.75;;;3.35;;
19754;SDS011;10036;47.812;9.274;2022-09-01T13:37:36;3.58;;;2.85;;
19754;SDS011;10036;47.812;9.274;2022-09-01T13:40:04;3.92;;;2.90;;
19754;SDS011;10036;47.812;9.274;2022-09-01T13:42:32;4.00;;;3.25;;
19754;SDS011;10036;47.812;9.274;2022-09-01T13:45:01;3.33;;;3.03;;
19754;SDS011;10036;47.812;9.274;2022-09-01T13:47:28;3.60;;;2.80;;
19754;SDS011;10036;47.812;9.274;2022-09-01T13:49:54;4.88;;;3.08;;
19754;SDS011;10036;47.812;9.274;2022-09-01T13:52:21;4.53;;;3.20;;
19754;SDS011;10036;47.812;9.274;2022-09-01T13:54:48;4.82;;;3.40;;
19754;SDS011;10036;47.812;9.274;2022-09-01T13:57:15;5.03;;;3.50;;
19754;SDS011;10036;47.812;9.274;2022-09-01T13:59:42;6.63;;;3.55;;
19754;SDS011;10036;47.812;9.274;2022-09-01T14:02:11;3.25;;;2.92;;
19754;SDS011;10036;47.812;9.274;2022-09-01T14:04:37;3.40;;;3.13;;
19754;SDS011;10036;47.812;9.274;2022-09-01T14:07:05;3.67;;;3.38;;
19754;SDS011;10036;47.812;9.274;2022-09-01T14:09:33;4.15;;;3.50;;
19754;SDS011;10036;47.812;9.274;2022-09-01T14:12:03;3.60;;;3.25;;
19754;SDS011;10036;47.812;9.274;2022-09-01T14:14:31;3.38;;;3.08;;
19754;SDS011;10036;47.812;9.274;2022-09-01T14:16:59;3.13;;;2.92;;
19754;SDS011;10036;47.812;9.274;2022-09-01T14:19:27;3.00;;;2.70;;
19754;SDS011;10036;47.812;9.274;2022-09-01T14:21:55;3.08;;;2.88;;
19754;SDS011;10036;47.812;9.274;2022-09-01T14:24:22;4.20;;;3.28;;
19754;SDS011;10036;47.812;9.274;2022-09-01T14:26:52;3.50;;;3.20;;
19754;SDS011;10036;47.812;9.274;2022-09-01T14:29:18;3.92;;;3.30;;
19754;SDS011;10036;47.812;9.274;2022-09-01T14:31:45;4.88;;;3.03;;
19754;SDS011;10036;47.812;9.274;2022-09-01T14:34:14;4.18;;;3.78;;
19754;SDS011;10036;47.812;9.274;2022-09-01T14:36:44;4.22;;;3.78;;
19754;SDS011;10036;47.812;9.274;2022-09-01T14:39:11;3.45;;;3.15;;
19754;SDS011;10036;47.812;9.274;2022-09-01T14:41:38;3.72;;;3.42;;
19754;SDS011;10036;47.812;9.274;2022-09-01T14:44:05;4.88;;;3.42;;
19754;SDS011;10036;47.812;9.274;2022-09-01T14:46:32;4.45;;;2.97;;
19754;SDS011;10036;47.812;9.274;2022-09-01T14:48:59;5.28;;;2.95;;
19754;SDS011;10036;47.812;9.274;2022-09-01T14:51:27;3.92;;;3.38;;
19754;SDS011;10036;47.812;9.274;2022-09-01T14:53:57;3.65;;;3.35;;
19754;SDS011;10036;47.812;9.274;2022-09-01T14:56:25;4.20;;;2.95;;
19754;SDS011;10036;47.812;9.274;2022-09-01T14:58:53;3.50;;;3.22;;
19754;SDS011;10036;47.812;9.274;2022-09-01T15:01:24;5.68;;;3.40;;
19754;SDS011;10036;47.812;9.274;2022-09-01T15:03:52;4.45;;;3.30;;
19754;SDS011;10036;47.812;9.274;2022-09-01T15:06:22;3.35;;;3.05;;
19754;SDS011;10036;47.812;9.274;2022-09-01T15:08:49;2.97;;;2.78;;
19754;SDS011;10036;47.812;9.274;2022-09-01T15:11:18;3.30;;;2.85;;